METAR Data
IDs: Format: Raw Decoded Include TAF

Data at: 0838 UTC 18 Sep 2021

PADQ 180453Z 31007KT 10SM CLR 12/03 A2948